Time;durP1;ratioP1;P1;durP2;ratioP2;P2;SDS_P1;SDS_P2;PMS_P1;PMS_P2;Temp;Humidity;BMP_temperature;BMP_pressure;BME280_temperature;BME280_humidity;BME280_pressure;Samples;Min_cycle;Max_cycle;Signal;HPM_P1;HPM_P2
2022/01/23 00:02:27;;;;;;;5.18;2.13;;;6.50;99.90;;;;;;5091018;28;20119;-50
2022/01/23 00:04:53;;;;;;;7.53;3.00;;;6.60;99.90;;;;;;5090949;28;20044;-52
2022/01/23 00:07:19;;;;;;;14.80;2.80;;;6.60;99.90;;;;;;5091291;28;20093;-52
2022/01/23 00:09:44;;;;;;;8.57;2.20;;;6.60;99.90;;;;;;5091984;28;20036;-51
2022/01/23 00:12:15;;;;;;;8.95;2.53;;;6.50;99.90;;;;;;5094950;28;20256;-47
2022/01/23 00:17:33;;;;;;;7.78;2.67;;;6.60;99.90;;;;;;5094816;28;20123;-47
2022/01/23 00:20:01;;;;;;;4.32;2.30;;;6.60;99.90;;;;;;5094976;28;20474;-49
2022/01/23 00:30:32;;;;;;;7.75;3.15;;;6.50;99.90;;;;;;5115252;28;20055;-49
2022/01/23 00:33:00;;;;;;;5.13;2.60;;;6.50;99.90;;;;;;5115194;28;20385;-47
2022/01/23 00:35:27;;;;;;;8.80;3.00;;;6.50;99.90;;;;;;5115391;28;20051;-51
2022/01/23 00:37:54;;;;;;;8.48;3.10;;;6.40;99.90;;;;;;5115289;28;20036;-50
2022/01/23 00:40:23;;;;;;;5.43;2.33;;;6.40;99.90;;;;;;5115244;28;20035;-47
2022/01/23 00:42:49;;;;;;;8.85;3.05;;;6.40;99.90;;;;;;5115147;28;20047;-49
2022/01/23 00:47:50;;;;;;;11.13;2.92;;;6.40;99.90;;;;;;5114947;28;20086;-50
2022/01/23 00:50:15;;;;;;;8.25;3.00;;;6.40;99.90;;;;;;5114955;28;20040;-49
2022/01/23 00:52:41;;;;;;;6.40;2.80;;;6.40;99.90;;;;;;5114510;28;20122;-51
2022/01/23 00:55:07;;;;;;;9.88;3.20;;;6.40;99.90;;;;;;5114799;28;20081;-52
2022/01/23 00:57:33;;;;;;;7.45;3.15;;;6.30;99.90;;;;;;5114817;28;20035;-51
2022/01/23 01:00:05;;;;;;;10.32;3.15;;;6.40;99.90;;;;;;5114827;28;20061;-47
2022/01/23 01:02:31;;;;;;;11.05;3.80;;;6.40;99.90;;;;;;5114631;28;20104;-51
2022/01/23 01:04:56;;;;;;;12.93;3.47;;;6.40;99.90;;;;;;5114610;28;20039;-52
2022/01/23 01:07:22;;;;;;;4.97;2.78;;;6.40;99.90;;;;;;5114485;28;20082;-51
2022/01/23 01:09:51;;;;;;;10.18;3.50;;;6.40;99.90;;;;;;5088952;28;20079;-51
2022/01/23 01:12:20;;;;;;;6.40;3.75;;;6.40;99.90;;;;;;5093853;28;20093;-50
2022/01/23 01:35:48;;;;;;;9.50;4.20;;;6.30;99.90;;;;;;5093800;28;20048;-50
2022/01/23 01:38:14;;;;;;;7.65;3.67;;;6.30;99.90;;;;;;5093674;28;20036;-51
2022/01/23 01:40:39;;;;;;;6.60;3.63;;;6.30;99.90;;;;;;5093111;28;20395;-49
2022/01/23 01:43:05;;;;;;;11.50;4.10;;;6.30;99.90;;;;;;5093299;28;20100;-52
2022/01/23 01:45:33;;;;;;;9.52;4.50;;;6.30;99.90;;;;;;5093312;28;20040;-50
2022/01/23 01:48:01;;;;;;;10.80;4.18;;;6.20;99.90;;;;;;5093168;28;20046;-51
2022/01/23 01:50:31;;;;;;;10.50;4.47;;;6.20;99.90;;;;;;5093412;28;20040;-50
2022/01/23 01:52:57;;;;;;;10.05;4.78;;;6.30;99.90;;;;;;5092988;28;20123;-50
2022/01/23 01:55:38;;;;;;;10.95;4.50;;;6.30;99.90;;;;;;5074453;28;20422;-50
2022/01/23 01:58:05;;;;;;;9.80;4.75;;;6.20;99.90;;;;;;5093094;28;20044;-51
2022/01/23 02:10:47;;;;;;;9.38;4.07;;;6.30;99.90;;;;;;5092703;28;20040;-52
2022/01/23 02:13:15;;;;;;;11.38;5.30;;;6.20;99.90;;;;;;5092643;28;20058;-51
2022/01/23 02:24:04;;;;;;;7.38;4.90;;;6.20;99.90;;;;;;5092737;28;20490;-51
2022/01/23 02:51:32;;;;;;;11.15;5.13;;;6.20;99.90;;;;;;5112436;28;20104;-49
2022/01/23 02:56:49;;;;;;;11.18;5.13;;;6.20;99.90;;;;;;5112140;28;20042;-50
2022/01/23 02:59:30;;;;;;;11.68;5.35;;;6.20;99.90;;;;;;5112396;28;20047;-50
2022/01/23 03:04:24;;;;;;;8.13;4.95;;;6.20;99.90;;;;;;5112041;28;20480;-51
2022/01/23 03:25:08;;;;;;;6.00;4.40;;;6.30;99.90;;;;;;5112263;28;20050;-48
2022/01/23 03:30:29;;;;;;;15.15;4.88;;;6.20;99.90;;;;;;5112273;28;20040;-50
2022/01/23 03:32:55;;;;;;;11.93;5.13;;;6.10;99.90;;;;;;5112112;28;20039;-49
2022/01/23 03:35:22;;;;;;;8.15;4.68;;;6.10;99.90;;;;;;5112089;28;20049;-52
2022/01/23 03:37:49;;;;;;;7.88;4.68;;;6.10;99.90;;;;;;5112513;28;20039;-48
2022/01/23 03:40:16;;;;;;;12.88;5.65;;;6.10;99.90;;;;;;5112267;28;20044;-51
2022/01/23 03:42:43;;;;;;;9.38;4.47;;;6.20;99.90;;;;;;5111987;28;20071;-51
2022/01/23 03:50:40;;;;;;;12.80;5.43;;;6.20;99.90;;;;;;5115910;28;20051;-51
2022/01/23 03:53:05;;;;;;;12.82;6.28;;;6.20;99.90;;;;;;5115874;28;20039;-47
2022/01/23 03:55:32;;;;;;;7.70;4.65;;;6.10;99.90;;;;;;5115810;28;20493;-50
2022/01/23 03:57:58;;;;;;;9.93;5.05;;;6.10;99.90;;;;;;5115803;28;20039;-52
2022/01/23 04:00:24;;;;;;;11.57;6.03;;;6.10;99.90;;;;;;5115678;28;20036;-52
2022/01/23 04:02:50;;;;;;;15.52;6.93;;;6.10;99.90;;;;;;5116053;28;20042;-50
2022/01/23 04:05:16;;;;;;;12.15;6.00;;;6.10;99.90;;;;;;5115309;28;20582;-48
2022/01/23 04:07:43;;;;;;;11.85;5.70;;;6.10;99.90;;;;;;5115746;28;20071;-49
2022/01/23 04:10:11;;;;;;;13.55;6.13;;;6.10;99.90;;;;;;5106607;28;20139;-62
2022/01/23 04:15:16;;;;;;;15.98;6.68;;;6.10;99.90;;;;;;5094904;28;20119;-62
2022/01/23 04:20:36;;;;;;;11.25;5.95;;;6.10;99.90;;;;;;5094876;28;20044;-62
2022/01/23 05:01:15;;;;;;;8.65;6.25;;;6.00;99.90;;;;;;5094358;28;20040;-62
2022/01/23 05:06:27;;;;;;;11.18;5.78;;;6.00;99.90;;;;;;5075937;28;20127;-62
2022/01/23 05:08:53;;;;;;;9.25;5.82;;;6.00;99.90;;;;;;5094789;28;20051;-62
2022/01/23 05:11:19;;;;;;;12.10;5.57;;;6.00;99.90;;;;;;5095961;28;20473;-62
2022/01/23 05:13:46;;;;;;;10.05;6.40;;;6.10;99.90;;;;;;5114304;28;20474;-63
2022/01/23 05:16:12;;;;;;;10.40;5.90;;;6.00;99.90;;;;;;5114302;28;20035;-63
2022/01/23 05:18:39;;;;;;;11.52;6.97;;;6.00;99.90;;;;;;5113839;28;20390;-62
2022/01/23 05:23:48;;;;;;;10.02;5.80;;;6.00;99.90;;;;;;5114007;28;20052;-62
2022/01/23 05:26:13;;;;;;;10.85;6.78;;;6.10;99.90;;;;;;5114043;28;20036;-62
2022/01/23 05:28:39;;;;;;;12.27;5.72;;;6.00;99.90;;;;;;5113851;28;20047;-62
2022/01/23 05:31:05;;;;;;;8.18;5.75;;;6.10;99.90;;;;;;5113751;28;20039;-62
2022/01/23 05:33:30;;;;;;;10.38;6.47;;;6.10;99.90;;;;;;5113772;28;20046;-62
2022/01/23 05:35:56;;;;;;;11.35;6.00;;;6.10;99.90;;;;;;5113914;28;20434;-62
2022/01/23 05:38:22;;;;;;;8.75;5.45;;;6.00;99.90;;;;;;5113773;28;20050;-62
2022/01/23 05:40:55;;;;;;;9.95;5.90;;;6.00;99.90;;;;;;5113808;28;20031;-62
2022/01/23 05:43:21;;;;;;;15.07;5.78;;;6.00;99.90;;;;;;5113946;28;20043;-62
2022/01/23 05:45:47;;;;;;;9.48;5.82;;;6.10;99.90;;;;;;5113557;28;20123;-62
2022/01/23 05:48:12;;;;;;;10.73;6.10;;;6.00;99.90;;;;;;5113433;28;20031;-62
2022/01/23 05:50:38;;;;;;;11.73;5.97;;;6.10;99.90;;;;;;5113646;28;20524;-62
2022/01/23 05:53:04;;;;;;;9.50;5.80;;;6.10;99.90;;;;;;5113371;28;20044;-62
2022/01/23 05:55:30;;;;;;;10.50;5.88;;;6.10;99.90;;;;;;5113196;28;20071;-62
2022/01/23 05:57:55;;;;;;;11.23;6.22;;;6.00;99.90;;;;;;5113493;28;20028;-62
2022/01/23 06:00:21;;;;;;;10.23;6.28;;;6.00;99.90;;;;;;5113120;28;20032;-62
2022/01/23 06:02:47;;;;;;;10.55;7.18;;;6.00;99.90;;;;;;5113080;28;20040;-62
2022/01/23 06:05:12;;;;;;;10.80;6.78;;;6.00;99.90;;;;;;5113025;28;20049;-62
2022/01/23 06:07:38;;;;;;;9.65;6.18;;;6.00;99.90;;;;;;5112821;28;20039;-62
2022/01/23 06:10:05;;;;;;;9.32;6.45;;;6.00;99.90;;;;;;5112827;28;20370;-62
2022/01/23 06:12:30;;;;;;;8.90;6.90;;;6.00;99.90;;;;;;5113045;28;20092;-63
2022/01/23 06:14:56;;;;;;;10.77;6.53;;;6.00;99.90;;;;;;5113332;28;20035;-62
2022/01/23 06:17:22;;;;;;;10.88;6.70;;;6.00;99.90;;;;;;5113334;28;20754;-62
2022/01/23 06:19:47;;;;;;;12.18;6.78;;;6.00;99.90;;;;;;5112860;28;20373;-62
2022/01/23 06:22:15;;;;;;;9.40;6.30;;;6.00;99.90;;;;;;5112818;28;20039;-62
2022/01/23 06:24:46;;;;;;;10.00;6.30;;;6.00;99.90;;;;;;5113059;28;20114;-62
2022/01/23 06:27:13;;;;;;;12.23;6.40;;;6.00;99.90;;;;;;5112812;28;20078;-62
2022/01/23 06:29:43;;;;;;;9.27;6.07;;;6.00;99.90;;;;;;5113132;28;20062;-62
2022/01/23 06:32:09;;;;;;;12.63;6.60;;;6.00;99.90;;;;;;5112887;28;20136;-62
2022/01/23 06:34:35;;;;;;;10.65;6.03;;;6.00;99.90;;;;;;5112863;28;20093;-62
2022/01/23 06:37:00;;;;;;;12.25;5.82;;;6.00;99.90;;;;;;5112690;28;20036;-62
2022/01/23 06:39:26;;;;;;;13.07;6.22;;;6.00;99.90;;;;;;5112826;28;20035;-62
2022/01/23 06:41:53;;;;;;;11.02;6.15;;;5.90;99.90;;;;;;5112910;28;20039;-63
2022/01/23 06:44:19;;;;;;;9.85;5.97;;;5.90;99.90;;;;;;5112795;28;20031;-63
2022/01/23 06:46:44;;;;;;;8.02;5.78;;;6.00;99.90;;;;;;5112402;28;20039;-63
2022/01/23 06:49:10;;;;;;;9.63;6.10;;;6.00;99.90;;;;;;5112481;28;20132;-62
2022/01/23 06:51:36;;;;;;;9.20;5.97;;;6.00;99.90;;;;;;5112621;28;20071;-63
2022/01/23 06:54:02;;;;;;;9.52;6.10;;;6.00;99.90;;;;;;5112379;28;20039;-63
2022/01/23 06:56:28;;;;;;;10.80;6.18;;;5.90;99.90;;;;;;5112564;28;20073;-62
2022/01/23 06:58:54;;;;;;;8.48;6.03;;;5.90;99.90;;;;;;5094087;28;20044;-62
2022/01/23 07:01:20;;;;;;;9.82;6.20;;;5.90;99.90;;;;;;5112264;28;20027;-62
2022/01/23 07:03:45;;;;;;;10.30;6.40;;;5.90;99.90;;;;;;5112442;28;20036;-63
2022/01/23 07:06:11;;;;;;;10.07;5.72;;;5.80;99.90;;;;;;5112458;28;20043;-62
2022/01/23 07:08:37;;;;;;;9.60;6.15;;;5.80;99.90;;;;;;5112269;28;20035;-62
2022/01/23 07:11:02;;;;;;;10.43;6.10;;;5.80;99.90;;;;;;5112597;28;20122;-62
2022/01/23 07:13:28;;;;;;;9.57;6.40;;;5.70;99.90;;;;;;5112389;28;20054;-62
2022/01/23 07:15:54;;;;;;;9.98;6.38;;;5.70;99.90;;;;;;5112253;28;20042;-63
2022/01/23 07:18:19;;;;;;;11.35;5.80;;;5.70;99.90;;;;;;5112130;28;20036;-62
2022/01/23 07:20:46;;;;;;;9.90;5.80;;;5.70;99.90;;;;;;5115309;28;20089;-62
2022/01/23 07:23:12;;;;;;;8.50;5.97;;;5.70;99.90;;;;;;5116683;28;20054;-63
2022/01/23 07:25:39;;;;;;;11.00;6.60;;;5.70;99.90;;;;;;5116609;28;20050;-62
2022/01/23 07:28:10;;;;;;;12.07;6.90;;;5.60;99.90;;;;;;5097935;28;20154;-62
2022/01/23 07:30:41;;;;;;;10.95;5.85;;;5.60;99.90;;;;;;5116589;28;20047;-62
2022/01/23 07:33:07;;;;;;;7.93;6.20;;;5.60;99.90;;;;;;5116134;28;20057;-63
2022/01/23 07:35:33;;;;;;;8.52;5.65;;;5.60;99.90;;;;;;5116412;28;20036;-62
2022/01/23 07:37:59;;;;;;;7.72;5.30;;;5.60;99.90;;;;;;5116405;28;20036;-63
2022/01/23 07:40:24;;;;;;;10.15;6.00;;;5.60;99.90;;;;;;5116040;28;20031;-62
2022/01/23 07:42:51;;;;;;;10.05;5.72;;;5.50;99.90;;;;;;5115859;28;20071;-62
2022/01/23 07:45:16;;;;;;;10.07;6.35;;;5.50;99.90;;;;;;5115926;28;20035;-62
2022/01/23 07:47:42;;;;;;;9.90;5.95;;;5.50;99.90;;;;;;5116119;28;20485;-63
2022/01/23 07:50:10;;;;;;;8.80;5.50;;;5.50;99.90;;;;;;5116072;28;20051;-63
2022/01/23 07:52:37;;;;;;;7.03;5.43;;;5.50;99.90;;;;;;5115929;28;20051;-63
2022/01/23 07:55:08;;;;;;;9.43;5.70;;;5.50;99.90;;;;;;5115877;28;20040;-62
2022/01/23 07:57:34;;;;;;;7.40;5.57;;;5.50;99.90;;;;;;5115736;28;20114;-63
2022/01/23 08:00:00;;;;;;;7.53;5.32;;;5.50;99.90;;;;;;5115564;28;20110;-63
2022/01/23 08:02:26;;;;;;;9.32;5.93;;;5.60;99.90;;;;;;5115557;28;20046;-62
2022/01/23 08:04:52;;;;;;;7.22;4.90;;;5.60;99.90;;;;;;5097361;28;20489;-63
2022/01/23 08:07:30;;;;;;;6.75;5.03;;;5.60;99.90;;;;;;5115898;28;20046;-63
2022/01/23 08:10:03;;;;;;;8.85;5.40;;;5.60;99.90;;;;;;5076573;28;20052;-62
2022/01/23 08:12:30;;;;;;;7.32;5.82;;;5.50;99.90;;;;;;5094851;28;20394;-62
2022/01/23 08:14:58;;;;;;;7.50;4.88;;;5.50;99.90;;;;;;5095061;28;20177;-62
2022/01/23 08:17:25;;;;;;;7.57;5.67;;;5.50;99.90;;;;;;5094538;28;20069;-62
2022/01/23 08:19:57;;;;;;;10.27;5.95;;;5.60;99.90;;;;;;5094988;28;20032;-63
2022/01/23 08:22:24;;;;;;;8.85;5.70;;;5.60;99.90;;;;;;5106311;28;20039;-63
2022/01/23 08:24:52;;;;;;;9.18;5.72;;;5.60;99.90;;;;;;5115017;28;20047;-63
2022/01/23 08:27:17;;;;;;;9.30;5.80;;;5.80;99.90;;;;;;5114874;28;20486;-63
2022/01/23 08:29:44;;;;;;;10.20;5.38;;;5.70;99.90;;;;;;5115097;28;20046;-63
2022/01/23 08:32:10;;;;;;;7.78;5.35;;;5.80;99.90;;;;;;5114527;28;20035;-64
2022/01/23 08:34:37;;;;;;;8.43;5.38;;;5.80;99.90;;;;;;5115226;28;20397;-64
2022/01/23 08:37:07;;;;;;;6.40;5.00;;;5.80;99.90;;;;;;5115169;28;20039;-64
2022/01/23 08:39:37;;;;;;;6.93;5.28;;;5.90;99.90;;;;;;5114821;28;20035;-64
2022/01/23 08:42:05;;;;;;;9.77;5.07;;;5.90;99.90;;;;;;5114908;28;20040;-63
2022/01/23 08:44:31;;;;;;;9.25;5.80;;;6.00;99.90;;;;;;5096595;28;20047;-63
2022/01/23 08:46:57;;;;;;;7.00;4.97;;;6.00;99.90;;;;;;5114688;28;20096;-64
2022/01/23 08:49:25;;;;;;;6.55;4.90;;;6.00;99.90;;;;;;5114745;28;20035;-63
2022/01/23 08:51:53;;;;;;;9.13;5.68;;;6.00;99.90;;;;;;5114379;28;20416;-64
2022/01/23 08:54:18;;;;;;;8.88;5.72;;;6.10;99.90;;;;;;5079268;28;20043;-64
2022/01/23 08:56:44;;;;;;;9.60;6.35;;;6.10;99.90;;;;;;5109188;28;20042;-64
2022/01/23 08:59:10;;;;;;;7.13;5.20;;;6.10;99.90;;;;;;5112579;28;20066;-64
2022/01/23 09:01:36;;;;;;;8.50;5.72;;;6.20;99.90;;;;;;5094287;28;20035;-63
2022/01/23 09:04:03;;;;;;;7.38;5.35;;;6.10;99.90;;;;;;5113484;28;20071;-63
2022/01/23 09:06:29;;;;;;;9.23;5.60;;;6.20;99.90;;;;;;5113929;28;20092;-63
2022/01/23 09:08:57;;;;;;;8.18;5.50;;;6.20;99.90;;;;;;5113609;28;20031;-63
2022/01/23 09:11:26;;;;;;;9.38;5.07;;;6.20;99.90;;;;;;5093963;28;20075;-63
2022/01/23 09:14:17;;;;;;;8.98;5.85;;;6.30;99.90;;;;;;5093949;28;20404;-63
2022/01/23 09:16:43;;;;;;;7.53;4.68;;;6.20;99.90;;;;;;5092890;28;20437;-63
2022/01/23 09:19:10;;;;;;;8.05;4.80;;;6.20;99.90;;;;;;5093650;28;20035;-63
2022/01/23 09:21:37;;;;;;;6.43;5.20;;;6.20;99.90;;;;;;5114008;28;20028;-63
2022/01/23 09:24:03;;;;;;;6.53;4.78;;;6.30;99.90;;;;;;5113935;28;20097;-51
2022/01/23 09:26:30;;;;;;;7.88;5.32;;;6.30;99.90;;;;;;5113847;28;20086;-53
2022/01/23 09:28:59;;;;;;;6.03;4.75;;;6.30;99.90;;;;;;5090245;28;20123;-51
2022/01/23 09:31:48;;;;;;;5.95;4.43;;;6.40;99.90;;;;;;5108487;28;20111;-47
2022/01/23 09:34:11;;;;;;;6.85;5.18;;;6.50;99.90;;;;;;5092779;28;20055;-51
2022/01/23 09:36:37;;;;;;;6.60;4.43;;;6.50;99.90;;;;;;5093614;28;20089;-52
2022/01/23 09:39:03;;;;;;;8.40;4.70;;;6.60;99.90;;;;;;5074690;28;20056;-50
2022/01/23 09:41:31;;;;;;;6.75;4.82;;;6.60;99.90;;;;;;5093027;28;20093;-51
2022/01/23 09:44:01;;;;;;;7.22;5.38;;;6.70;99.90;;;;;;5092662;28;20085;-53
2022/01/23 09:46:27;;;;;;;6.22;4.60;;;6.70;99.90;;;;;;5092886;28;20040;-52
2022/01/23 09:48:54;;;;;;;5.88;4.75;;;6.80;99.90;;;;;;5091963;28;20116;-53
2022/01/23 09:51:25;;;;;;;5.50;4.43;;;6.80;99.90;;;;;;5093151;28;20085;-51
2022/01/23 09:53:54;;;;;;;5.90;3.92;;;6.80;99.90;;;;;;5092780;28;20042;-52
2022/01/23 09:56:27;;;;;;;4.72;3.90;;;6.80;99.90;;;;;;5092961;28;20062;-50
2022/01/23 09:58:57;;;;;;;5.03;3.45;;;6.90;99.90;;;;;;5092629;28;20081;-51
2022/01/23 10:01:24;;;;;;;4.88;3.70;;;6.90;99.90;;;;;;5092861;28;20079;-52
2022/01/23 10:03:50;;;;;;;4.38;3.70;;;7.00;99.90;;;;;;5093385;28;20548;-51
2022/01/23 10:06:16;;;;;;;3.60;3.08;;;7.00;99.90;;;;;;5075170;28;20047;-51
2022/01/23 10:08:43;;;;;;;4.68;3.50;;;7.00;99.90;;;;;;5092761;28;20386;-52
2022/01/23 10:11:12;;;;;;;4.70;3.47;;;7.00;99.90;;;;;;5092469;28;20048;-51
2022/01/23 10:13:40;;;;;;;5.07;3.47;;;7.00;99.90;;;;;;5093106;28;20039;-52
2022/01/23 10:16:06;;;;;;;5.00;3.23;;;7.00;99.90;;;;;;5092863;28;20036;-50
2022/01/23 10:18:32;;;;;;;5.80;3.47;;;7.10;99.90;;;;;;5092962;28;20055;-53
2022/01/23 10:20:58;;;;;;;4.80;3.80;;;7.10;99.90;;;;;;5092604;28;20038;-53
2022/01/23 10:23:24;;;;;;;4.60;3.40;;;7.20;99.90;;;;;;5092283;28;20040;-54
2022/01/23 10:25:52;;;;;;;3.72;3.10;;;7.20;99.90;;;;;;5073590;28;20055;-54
2022/01/23 10:28:21;;;;;;;4.93;3.00;;;7.20;99.90;;;;;;5092358;28;20059;-54
2022/01/23 10:30:51;;;;;;;3.55;2.30;;;7.20;99.90;;;;;;5074699;28;20048;-52
2022/01/23 10:33:25;;;;;;;3.45;2.58;;;7.30;99.90;;;;;;5092307;28;20044;-53
2022/01/23 10:35:57;;;;;;;3.67;2.55;;;7.30;99.90;;;;;;5092311;28;20044;-53
2022/01/23 10:38:25;;;;;;;3.85;2.42;;;7.30;99.90;;;;;;5092156;28;20046;-52
2022/01/23 10:49:01;;;;;;;4.07;2.85;;;7.40;99.90;;;;;;5092113;28;20118;-51
2022/01/23 10:51:29;;;;;;;5.18;2.75;;;7.40;99.90;;;;;;5092275;28;20600;-53
2022/01/23 10:54:01;;;;;;;5.97;2.63;;;7.40;99.90;;;;;;5091803;28;20036;-52
2022/01/23 10:56:29;;;;;;;3.80;2.95;;;7.40;99.90;;;;;;5091979;28;20138;-53
2022/01/23 10:59:03;;;;;;;4.20;2.70;;;7.40;99.90;;;;;;5091923;28;20043;-53
2022/01/23 11:01:29;;;;;;;3.45;2.60;;;7.40;99.90;;;;;;5092136;28;20040;-50
2022/01/23 11:04:11;;;;;;;3.15;2.30;;;7.40;99.90;;;;;;5091890;28;20089;-51
2022/01/23 11:07:00;;;;;;;4.07;2.58;;;7.50;99.90;;;;;;5091755;28;20040;-53
2022/01/23 11:09:32;;;;;;;3.63;2.30;;;7.50;99.90;;;;;;5091689;28;20032;-54
2022/01/23 11:12:13;;;;;;;6.82;2.85;;;7.50;99.90;;;;;;5091903;28;20371;-53
2022/01/23 11:17:23;;;;;;;4.75;2.70;;;7.50;99.90;;;;;;5091856;28;20080;-53
2022/01/23 11:19:52;;;;;;;5.30;2.10;;;7.60;99.90;;;;;;5091691;28;20036;-50
2022/01/23 11:22:25;;;;;;;2.80;2.15;;;7.60;99.90;;;;;;5091718;28;20501;-52
2022/01/23 11:24:52;;;;;;;3.33;2.28;;;7.60;99.90;;;;;;5091745;28;20047;-51
2022/01/23 11:27:21;;;;;;;2.17;1.98;;;7.70;99.90;;;;;;5091482;28;20113;-51
2022/01/23 11:29:59;;;;;;;2.35;2.03;;;7.70;99.90;;;;;;5091706;28;20048;-55
2022/01/23 11:32:29;;;;;;;3.45;2.50;;;7.70;99.90;;;;;;5091416;28;20042;-48
2022/01/23 11:35:05;;;;;;;3.75;2.40;;;7.70;99.90;;;;;;5091603;28;20040;-48
2022/01/23 11:37:32;;;;;;;3.13;2.45;;;7.70;99.90;;;;;;5091505;28;20044;-49
2022/01/23 11:40:04;;;;;;;3.63;2.70;;;7.70;99.90;;;;;;5073336;28;20043;-51
2022/01/23 11:51:05;;;;;;;2.97;2.20;;;7.70;99.90;;;;;;5091532;28;20371;-50
2022/01/23 11:53:45;;;;;;;3.03;2.33;;;7.70;99.90;;;;;;5091545;28;20047;-48
2022/01/23 11:56:50;;;;;;;3.22;2.58;;;7.80;99.90;;;;;;5091777;28;20147;-50
2022/01/23 11:59:41;;;;;;;8.50;3.05;;;7.80;99.90;;;;;;5072788;28;20040;-47
2022/01/23 12:02:11;;;;;;;3.00;2.33;;;7.90;99.90;;;;;;5091947;28;20101;-47
2022/01/23 12:04:38;;;;;;;3.85;2.20;;;7.80;99.90;;;;;;5091517;28;20097;-50
2022/01/23 12:07:11;;;;;;;4.85;3.00;;;7.90;99.90;;;;;;5094177;28;20032;-48
2022/01/23 12:09:37;;;;;;;5.80;3.13;;;7.90;99.90;;;;;;5095133;28;20051;-48
2022/01/23 12:18:22;;;;;;;2.45;1.92;;;7.90;99.90;;;;;;5095202;28;20032;-50
2022/01/23 12:20:50;;;;;;;6.20;1.85;;;7.90;99.90;;;;;;5094757;28;20111;-48
2022/01/23 12:23:17;;;;;;;3.13;2.08;;;7.90;99.90;;;;;;5094910;28;20035;-50
2022/01/23 12:25:47;;;;;;;2.55;2.10;;;7.90;99.90;;;;;;5094692;28;20474;-50
2022/01/23 12:28:25;;;;;;;4.57;2.55;;;7.90;99.90;;;;;;5094615;28;20063;-48
2022/01/23 12:30:59;;;;;;;3.55;2.13;;;7.90;99.90;;;;;;5094560;28;20205;-48
2022/01/23 12:33:42;;;;;;;2.67;1.80;;;7.90;99.90;;;;;;5076360;28;20040;-47
2022/01/23 12:36:14;;;;;;;2.47;2.00;;;7.90;99.90;;;;;;5094527;28;20036;-50
2022/01/23 12:38:47;;;;;;;4.05;3.00;;;7.90;99.90;;;;;;5094468;28;20379;-49
2022/01/23 12:41:14;;;;;;;4.90;2.40;;;7.90;99.90;;;;;;5094378;28;20047;-48
2022/01/23 12:43:39;;;;;;;5.53;2.40;;;7.90;99.90;;;;;;5094491;28;20046;-51
2022/01/23 12:46:08;;;;;;;3.83;2.28;;;7.90;99.90;;;;;;5094249;28;20036;-50
2022/01/23 12:48:34;;;;;;;3.58;2.45;;;7.90;99.90;;;;;;5094464;28;20044;-49
2022/01/23 12:51:03;;;;;;;4.93;1.98;;;8.00;99.90;;;;;;5094063;28;20070;-47
2022/01/23 12:53:37;;;;;;;4.20;2.20;;;8.00;99.90;;;;;;5094108;28;20040;-50
2022/01/23 12:56:08;;;;;;;2.25;2.05;;;8.00;99.90;;;;;;5094332;28;20043;-52
2022/01/23 12:58:35;;;;;;;2.53;2.00;;;8.00;99.90;;;;;;5094199;28;20040;-48
2022/01/23 13:01:04;;;;;;;2.13;1.90;;;8.00;99.90;;;;;;5075802;28;20036;-47
2022/01/23 13:03:30;;;;;;;3.03;1.85;;;8.00;99.90;;;;;;5093948;28;20122;-47
2022/01/23 13:05:55;;;;;;;2.83;1.80;;;8.00;99.90;;;;;;5093833;28;20124;-49
2022/01/23 13:08:34;;;;;;;4.53;1.92;;;8.00;99.90;;;;;;5093840;28;20051;-48
2022/01/23 13:13:50;;;;;;;;;;;8.00;99.90;;;;;;5094026;28;20050;-47
2022/01/23 13:16:25;;;;;;;3.92;2.58;;;8.00;99.90;;;;;;5093693;28;19923;-48
2022/01/23 13:32:45;;;;;;;5.03;2.92;;;7.80;99.90;;;;;;5093314;28;20181;-51
2022/01/23 13:35:15;;;;;;;5.88;3.35;;;7.80;99.90;;;;;;5093383;28;20119;-52
2022/01/23 13:37:44;;;;;;;4.55;2.80;;;7.80;99.90;;;;;;5093776;28;20449;-51
2022/01/23 13:40:13;;;;;;;4.30;2.72;;;7.80;99.90;;;;;;5093503;28;20411;-51
2022/01/23 13:54:19;;;;;;;9.02;3.10;;;7.80;99.90;;;;;;5092977;28;20052;-49
2022/01/23 13:59:57;;;;;;;4.50;3.30;;;7.80;99.90;;;;;;5093011;28;20036;-48
2022/01/23 14:02:32;;;;;;;5.80;3.63;;;7.80;99.90;;;;;;5092895;28;20047;-50
2022/01/23 14:05:11;;;;;;;6.55;3.72;;;7.70;99.90;;;;;;5093126;28;20123;-47
2022/01/23 14:07:39;;;;;;;4.95;3.95;;;7.80;99.90;;;;;;5092907;28;20043;-48
2022/01/23 14:10:11;;;;;;;5.85;3.83;;;7.70;99.90;;;;;;5092638;28;20086;-47
2022/01/23 14:12:37;;;;;;;5.47;4.05;;;7.70;99.90;;;;;;5092718;28;20434;-49
2022/01/23 14:15:08;;;;;;;7.38;4.35;;;7.70;99.90;;;;;;5092427;28;20118;-48
2022/01/23 14:17:39;;;;;;;7.55;3.92;;;7.70;99.90;;;;;;5092890;28;20036;-49
2022/01/23 14:20:16;;;;;;;6.32;3.90;;;7.70;99.90;;;;;;5092683;28;20503;-48
2022/01/23 14:22:44;;;;;;;5.97;3.70;;;7.70;99.90;;;;;;5092478;28;20055;-50
2022/01/23 14:25:09;;;;;;;5.15;3.88;;;7.70;99.90;;;;;;5092477;28;20417;-50
2022/01/23 14:27:37;;;;;;;4.88;4.00;;;7.70;99.90;;;;;;5092143;28;20086;-52
2022/01/23 14:30:09;;;;;;;6.38;4.38;;;7.70;99.90;;;;;;5092090;28;20093;-51
2022/01/23 14:32:44;;;;;;;5.63;3.88;;;7.60;99.90;;;;;;5092378;28;20048;-51
2022/01/23 14:35:26;;;;;;;7.10;4.05;;;7.70;99.90;;;;;;5092420;28;20405;-51
2022/01/23 14:37:52;;;;;;;8.15;4.18;;;7.70;99.90;;;;;;5092209;28;20394;-51
2022/01/23 14:40:21;;;;;;;6.88;3.95;;;7.70;99.90;;;;;;5092461;28;20093;-50
2022/01/23 14:43:08;;;;;;;7.57;4.18;;;7.70;99.90;;;;;;5092315;28;20461;-52
2022/01/23 14:45:44;;;;;;;7.93;4.60;;;7.70;99.90;;;;;;5092181;28;20122;-50
2022/01/23 14:48:12;;;;;;;8.18;4.45;;;7.70;99.90;;;;;;5092114;28;20044;-51
2022/01/23 14:50:40;;;;;;;7.60;5.00;;;7.70;99.90;;;;;;5092116;28;20086;-50
2022/01/23 14:53:09;;;;;;;6.35;4.20;;;7.70;99.90;;;;;;5092163;28;20043;-50
2022/01/23 14:55:36;;;;;;;6.28;4.07;;;7.70;99.90;;;;;;5092182;28;20471;-50
2022/01/23 14:58:03;;;;;;;6.18;4.38;;;7.70;99.90;;;;;;5092041;28;20075;-53
2022/01/23 15:00:33;;;;;;;6.45;4.53;;;7.70;99.90;;;;;;5091968;28;20040;-50
2022/01/23 15:03:02;;;;;;;6.32;4.15;;;7.70;99.90;;;;;;5091978;28;20456;-48
2022/01/23 15:05:32;;;;;;;;;;;7.70;99.90;;;;;;5092454;28;20043;-49
2022/01/23 15:07:58;;;;;;;7.82;4.68;;;7.70;99.90;;;;;;5091757;28;20358;-51
2022/01/23 15:10:24;;;;;;;6.20;3.45;;;7.70;99.90;;;;;;5091616;28;20483;-50
2022/01/23 15:12:50;;;;;;;6.35;3.58;;;7.70;99.90;;;;;;5091800;28;20044;-53
2022/01/23 15:15:16;;;;;;;5.53;3.58;;;7.70;99.90;;;;;;5091654;28;20034;-51
2022/01/23 15:17:41;;;;;;;5.65;3.60;;;7.60;99.90;;;;;;5091974;28;20444;-49
2022/01/23 15:20:08;;;;;;;5.45;3.35;;;7.60;99.90;;;;;;5091859;28;20551;-51
2022/01/23 15:22:34;;;;;;;6.47;3.95;;;7.50;99.90;;;;;;5091620;28;20115;-51
2022/01/23 15:25:00;;;;;;;5.93;3.83;;;7.50;99.90;;;;;;5091633;28;20116;-50
2022/01/23 15:27:26;;;;;;;7.38;4.05;;;7.50;99.90;;;;;;5091350;28;20060;-50
2022/01/23 15:29:52;;;;;;;6.05;3.92;;;7.50;99.90;;;;;;5091544;28;20113;-52
2022/01/23 15:32:18;;;;;;;4.82;3.38;;;7.50;99.90;;;;;;5091808;28;20389;-49
2022/01/23 15:34:44;;;;;;;5.85;3.17;;;7.60;99.90;;;;;;5091465;28;20047;-49
2022/01/23 15:37:13;;;;;;;6.85;3.50;;;7.60;99.90;;;;;;5091676;28;20073;-50
2022/01/23 15:39:39;;;;;;;5.72;3.45;;;7.50;99.90;;;;;;5073351;28;20477;-50
2022/01/23 15:42:05;;;;;;;4.43;3.15;;;7.50;99.90;;;;;;5094794;28;20032;-48
2022/01/23 15:44:31;;;;;;;10.05;3.92;;;7.50;99.90;;;;;;5095362;28;20047;-49
2022/01/23 15:46:57;;;;;;;4.45;3.10;;;7.40;99.90;;;;;;5095398;28;20362;-52
2022/01/23 15:49:22;;;;;;;4.63;3.00;;;7.40;99.90;;;;;;5095404;28;20047;-54
2022/01/23 15:51:48;;;;;;;7.15;3.38;;;7.40;99.90;;;;;;5076804;28;20055;-52
2022/01/23 15:54:18;;;;;;;4.95;3.53;;;7.40;99.90;;;;;;5095194;28;20403;-51
2022/01/23 15:56:48;;;;;;;4.25;3.10;;;7.30;99.90;;;;;;5095393;28;20040;-49
2022/01/23 15:59:17;;;;;;;5.85;3.15;;;7.30;99.90;;;;;;5106437;28;20078;-50
2022/01/23 16:01:44;;;;;;;4.00;2.92;;;7.30;99.90;;;;;;5096961;28;20494;-53
2022/01/23 16:04:10;;;;;;;6.45;3.72;;;7.30;99.90;;;;;;5095189;28;20051;-52
2022/01/23 16:06:35;;;;;;;3.42;2.70;;;7.20;99.90;;;;;;5094913;28;20039;-50
2022/01/23 16:09:01;;;;;;;5.90;3.15;;;7.30;99.90;;;;;;5094907;28;20141;-49
2022/01/23 16:11:27;;;;;;;4.78;2.90;;;7.30;99.90;;;;;;5094882;28;20036;-50
2022/01/23 16:13:53;;;;;;;6.40;3.40;;;7.30;99.90;;;;;;5094860;28;20036;-51
2022/01/23 16:16:18;;;;;;;8.73;3.40;;;7.30;99.90;;;;;;5076803;28;20044;-52
2022/01/23 16:18:44;;;;;;;4.75;3.05;;;7.40;99.90;;;;;;5094783;28;20039;-51
2022/01/23 16:21:10;;;;;;;5.43;3.70;;;7.40;99.90;;;;;;5076175;28;20043;-52
2022/01/23 16:23:35;;;;;;;5.38;3.42;;;7.30;99.90;;;;;;5094838;28;20043;-52
2022/01/23 16:26:01;;;;;;;7.88;3.10;;;7.30;99.90;;;;;;5094653;28;20053;-52
2022/01/23 16:28:27;;;;;;;6.97;3.72;;;7.30;99.90;;;;;;5094465;28;20054;-49
2022/01/23 16:30:56;;;;;;;5.85;3.60;;;7.30;99.90;;;;;;5094530;28;20052;-51
2022/01/23 16:33:26;;;;;;;5.20;3.75;;;7.30;99.90;;;;;;5076268;28;20080;-50
2022/01/23 16:35:53;;;;;;;5.82;3.05;;;7.30;99.90;;;;;;5094260;28;20044;-51
2022/01/23 16:38:19;;;;;;;6.25;3.63;;;7.30;99.90;;;;;;5094484;28;20442;-52